sensor_id;sensor_type;location;lat;lon;timestamp;pressure;altitude;pressure_sealevel;temperature;humidity
46379;BME280;32084;42.254;22.744;2023-04-19T00:01:05;94783.75;;;11.21;78.21
46379;BME280;32084;42.254;22.744;2023-04-19T00:03:32;94783.75;;;11.21;78.39
46379;BME280;32084;42.254;22.744;2023-04-19T00:05:58;94780.78;;;11.16;78.92
46379;BME280;32084;42.254;22.744;2023-04-19T00:08:24;94786.81;;;11.09;78.76
46379;BME280;32084;42.254;22.744;2023-04-19T00:10:50;94782.81;;;11.13;79.01
46379;BME280;32084;42.254;22.744;2023-04-19T00:13:16;94788.97;;;11.14;78.27
46379;BME280;32084;42.254;22.744;2023-04-19T00:15:43;94780.78;;;11.16;78.94
46379;BME280;32084;42.254;22.744;2023-04-19T00:18:08;94773.91;;;11.13;78.87
46379;BME280;32084;42.254;22.744;2023-04-19T00:20:34;94772.28;;;11.12;78.91
46379;BME280;32084;42.254;22.744;2023-04-19T00:23:01;94773.53;;;11.24;78.28
46379;BME280;32084;42.254;22.744;2023-04-19T00:25:27;94768.91;;;11.18;78.97
46379;BME280;32084;42.254;22.744;2023-04-19T00:27:54;94767.69;;;11.21;77.98
46379;BME280;32084;42.254;22.744;2023-04-19T00:30:20;94763.38;;;11.20;78.34
46379;BME280;32084;42.254;22.744;2023-04-19T00:32:46;94755.63;;;11.25;77.48
46379;BME280;32084;42.254;22.744;2023-04-19T00:35:12;94758.47;;;11.31;77.01
46379;BME280;32084;42.254;22.744;2023-04-19T00:37:39;94748.31;;;11.19;77.98
46379;BME280;32084;42.254;22.744;2023-04-19T00:40:05;94753.81;;;11.25;77.18
46379;BME280;32084;42.254;22.744;2023-04-19T00:42:31;94749.28;;;11.26;76.34
46379;BME280;32084;42.254;22.744;2023-04-19T00:44:57;94757.97;;;11.28;75.88
46379;BME280;32084;42.254;22.744;2023-04-19T00:47:23;94745.13;;;11.23;76.07
46379;BME280;32084;42.254;22.744;2023-04-19T00:49:49;94758.25;;;11.02;76.77
46379;BME280;32084;42.254;22.744;2023-04-19T00:52:15;94757.13;;;10.88;78.31
46379;BME280;32084;42.254;22.744;2023-04-19T00:54:41;94759.13;;;10.94;78.31
46379;BME280;32084;42.254;22.744;2023-04-19T00:57:08;94756.59;;;10.92;78.29
46379;BME280;32084;42.254;22.744;2023-04-19T00:59:34;94756.81;;;10.91;78.99
46379;BME280;32084;42.254;22.744;2023-04-19T01:02:00;94756.44;;;10.94;79.40
46379;BME280;32084;42.254;22.744;2023-04-19T01:04:26;94761.78;;;10.94;78.39
46379;BME280;32084;42.254;22.744;2023-04-19T01:06:52;94756.28;;;10.96;79.07
46379;BME280;32084;42.254;22.744;2023-04-19T01:09:18;94756.59;;;11.01;79.05
46379;BME280;32084;42.254;22.744;2023-04-19T01:11:44;94749.56;;;11.00;79.49
46379;BME280;32084;42.254;22.744;2023-04-19T01:14:11;94746.50;;;11.11;78.41
46379;BME280;32084;42.254;22.744;2023-04-19T01:16:37;94750.81;;;11.20;77.84
46379;BME280;32084;42.254;22.744;2023-04-19T01:19:03;94752.84;;;11.18;77.51
46379;BME280;32084;42.254;22.744;2023-04-19T01:21:29;94750.50;;;11.15;78.35
46379;BME280;32084;42.254;22.744;2023-04-19T01:23:57;94751.69;;;11.12;77.75
46379;BME280;32084;42.254;22.744;2023-04-19T01:26:23;94749.72;;;11.06;78.26
46379;BME280;32084;42.254;22.744;2023-04-19T01:28:49;94745.41;;;10.97;77.44
46379;BME280;32084;42.254;22.744;2023-04-19T01:31:15;94742.84;;;11.04;78.88
46379;BME280;32084;42.254;22.744;2023-04-19T01:33:41;94744.19;;;11.08;78.31
46379;BME280;32084;42.254;22.744;2023-04-19T01:36:07;94743.50;;;11.14;78.12
46379;BME280;32084;42.254;22.744;2023-04-19T01:38:33;94742.47;;;11.15;78.21
46379;BME280;32084;42.254;22.744;2023-04-19T01:40:59;94739.31;;;11.11;79.24
46379;BME280;32084;42.254;22.744;2023-04-19T01:43:25;94745.34;;;11.13;78.98
46379;BME280;32084;42.254;22.744;2023-04-19T01:45:51;94740.44;;;11.17;78.97
46379;BME280;32084;42.254;22.744;2023-04-19T01:48:17;94741.31;;;11.18;78.57
46379;BME280;32084;42.254;22.744;2023-04-19T01:50:43;94730.88;;;11.23;77.79
46379;BME280;32084;42.254;22.744;2023-04-19T01:53:10;94737.34;;;11.37;76.91
46379;BME280;32084;42.254;22.744;2023-04-19T01:55:36;94735.19;;;11.32;77.03
46379;BME280;32084;42.254;22.744;2023-04-19T01:58:02;94725.78;;;11.36;76.50
46379;BME280;32084;42.254;22.744;2023-04-19T02:00:28;94728.19;;;11.31;76.56
46379;BME280;32084;42.254;22.744;2023-04-19T02:02:53;94735.25;;;11.24;77.65
46379;BME280;32084;42.254;22.744;2023-04-19T02:05:19;94727.38;;;11.22;76.71
46379;BME280;32084;42.254;22.744;2023-04-19T02:07:45;94737.59;;;11.27;76.93
46379;BME280;32084;42.254;22.744;2023-04-19T02:10:12;94726.50;;;11.30;76.46
46379;BME280;32084;42.254;22.744;2023-04-19T02:12:38;94734.03;;;11.35;76.93
46379;BME280;32084;42.254;22.744;2023-04-19T02:15:04;94733.81;;;11.36;76.32
46379;BME280;32084;42.254;22.744;2023-04-19T02:17:30;94728.97;;;11.40;76.83
46379;BME280;32084;42.254;22.744;2023-04-19T02:19:56;94731.47;;;11.41;76.55
46379;BME280;32084;42.254;22.744;2023-04-19T02:22:22;94735.56;;;11.29;77.79
46379;BME280;32084;42.254;22.744;2023-04-19T02:24:48;94736.56;;;11.28;78.37
46379;BME280;32084;42.254;22.744;2023-04-19T02:27:14;94736.06;;;11.24;78.97
46379;BME280;32084;42.254;22.744;2023-04-19T02:29:41;94731.22;;;11.28;77.88
46379;BME280;32084;42.254;22.744;2023-04-19T02:32:07;94724.25;;;11.42;76.69
46379;BME280;32084;42.254;22.744;2023-04-19T02:34:33;94724.91;;;11.44;76.20
46379;BME280;32084;42.254;22.744;2023-04-19T02:36:59;94720.66;;;11.35;76.84
46379;BME280;32084;42.254;22.744;2023-04-19T02:39:25;94725.28;;;11.41;76.44
46379;BME280;32084;42.254;22.744;2023-04-19T02:41:52;94723.59;;;11.40;75.75
46379;BME280;32084;42.254;22.744;2023-04-19T02:44:18;94721.97;;;11.30;76.45
46379;BME280;32084;42.254;22.744;2023-04-19T02:46:50;94726.56;;;11.22;76.79
46379;BME280;32084;42.254;22.744;2023-04-19T02:49:16;94729.41;;;11.20;77.64
46379;BME280;32084;42.254;22.744;2023-04-19T02:51:42;94722.53;;;11.26;76.85
46379;BME280;32084;42.254;22.744;2023-04-19T02:54:09;94721.22;;;11.22;76.89
46379;BME280;32084;42.254;22.744;2023-04-19T02:56:35;94726.56;;;11.22;77.50
46379;BME280;32084;42.254;22.744;2023-04-19T02:59:02;94721.16;;;10.99;78.01
46379;BME280;32084;42.254;22.744;2023-04-19T03:01:28;94720.56;;;10.80;80.71
46379;BME280;32084;42.254;22.744;2023-04-19T03:03:54;94722.13;;;10.66;83.38
46379;BME280;32084;42.254;22.744;2023-04-19T03:06:20;94719.13;;;10.61;84.21
46379;BME280;32084;42.254;22.744;2023-04-19T03:08:46;94719.97;;;10.53;84.82
46379;BME280;32084;42.254;22.744;2023-04-19T03:11:12;94720.44;;;10.65;84.33
46379;BME280;32084;42.254;22.744;2023-04-19T03:13:38;94724.59;;;10.76;83.91
46379;BME280;32084;42.254;22.744;2023-04-19T03:16:05;94725.09;;;10.80;84.07
46379;BME280;32084;42.254;22.744;2023-04-19T03:18:31;94724.06;;;10.81;84.05
46379;BME280;32084;42.254;22.744;2023-04-19T03:20:57;94721.06;;;10.84;84.37
46379;BME280;32084;42.254;22.744;2023-04-19T03:23:24;94725.22;;;10.86;83.51
46379;BME280;32084;42.254;22.744;2023-04-19T03:25:50;94725.66;;;10.98;82.91
46379;BME280;32084;42.254;22.744;2023-04-19T03:28:16;94725.84;;;10.97;83.55
46379;BME280;32084;42.254;22.744;2023-04-19T03:30:42;94725.16;;;10.94;83.41
46379;BME280;32084;42.254;22.744;2023-04-19T03:33:08;94724.06;;;10.89;84.04
46379;BME280;32084;42.254;22.744;2023-04-19T03:35:34;94724.88;;;10.81;84.46
46379;BME280;32084;42.254;22.744;2023-04-19T03:38:00;94719.94;;;10.70;85.07
46379;BME280;32084;42.254;22.744;2023-04-19T03:40:26;94725.09;;;10.71;84.75
46379;BME280;32084;42.254;22.744;2023-04-19T03:42:52;94728.47;;;10.65;84.43
46379;BME280;32084;42.254;22.744;2023-04-19T03:45:18;94728.28;;;10.67;84.76
46379;BME280;32084;42.254;22.744;2023-04-19T03:47:44;94732.13;;;10.72;84.39
46379;BME280;32084;42.254;22.744;2023-04-19T03:50:10;94731.00;;;10.59;85.60
46379;BME280;32084;42.254;22.744;2023-04-19T03:52:36;94730.31;;;10.65;86.07
46379;BME280;32084;42.254;22.744;2023-04-19T03:55:02;94729.28;;;10.74;85.42
46379;BME280;32084;42.254;22.744;2023-04-19T03:57:28;94724.78;;;10.66;85.51
46379;BME280;32084;42.254;22.744;2023-04-19T03:59:54;94729.50;;;10.64;85.61
46379;BME280;32084;42.254;22.744;2023-04-19T04:02:20;94729.66;;;10.63;85.20
46379;BME280;32084;42.254;22.744;2023-04-19T04:04:51;94730.00;;;10.43;85.43
46379;BME280;32084;42.254;22.744;2023-04-19T04:07:17;94728.03;;;10.21;85.81
46379;BME280;32084;42.254;22.744;2023-04-19T04:09:43;94726.88;;;10.07;86.87
46379;BME280;32084;42.254;22.744;2023-04-19T04:12:11;94727.03;;;10.13;85.46
46379;BME280;32084;42.254;22.744;2023-04-19T04:14:38;94723.88;;;10.10;86.13
46379;BME280;32084;42.254;22.744;2023-04-19T04:17:04;94730.84;;;10.27;86.04
46379;BME280;32084;42.254;22.744;2023-04-19T04:19:30;94738.88;;;10.44;86.49
46379;BME280;32084;42.254;22.744;2023-04-19T04:21:56;94732.53;;;10.53;86.27
46379;BME280;32084;42.254;22.744;2023-04-19T04:24:22;94732.66;;;10.60;86.13
46379;BME280;32084;42.254;22.744;2023-04-19T04:26:48;94727.47;;;10.66;86.24
46379;BME280;32084;42.254;22.744;2023-04-19T04:29:16;94730.16;;;10.66;85.87
46379;BME280;32084;42.254;22.744;2023-04-19T04:31:43;94737.22;;;10.51;86.21
46379;BME280;32084;42.254;22.744;2023-04-19T04:34:09;94741.22;;;10.39;85.92
46379;BME280;32084;42.254;22.744;2023-04-19T04:36:35;94736.53;;;10.41;85.93
46379;BME280;32084;42.254;22.744;2023-04-19T04:39:02;94733.84;;;10.49;86.20
46379;BME280;32084;42.254;22.744;2023-04-19T04:41:29;94731.88;;;10.51;86.70
46379;BME280;32084;42.254;22.744;2023-04-19T04:43:56;94732.03;;;10.49;86.66
46379;BME280;32084;42.254;22.744;2023-04-19T04:46:23;94732.16;;;10.56;86.47
46379;BME280;32084;42.254;22.744;2023-04-19T04:48:50;94738.19;;;10.50;87.03
46379;BME280;32084;42.254;22.744;2023-04-19T04:51:16;94733.50;;;10.52;87.23
46379;BME280;32084;42.254;22.744;2023-04-19T04:53:42;94737.00;;;10.61;86.68
46379;BME280;32084;42.254;22.744;2023-04-19T04:56:08;94736.53;;;10.41;85.77
46379;BME280;32084;42.254;22.744;2023-04-19T04:58:34;94732.88;;;10.25;85.86
46379;BME280;32084;42.254;22.744;2023-04-19T05:01:00;94742.06;;;10.14;86.30
46379;BME280;32084;42.254;22.744;2023-04-19T05:03:26;94738.03;;;10.19;86.91
46379;BME280;32084;42.254;22.744;2023-04-19T05:05:52;94740.56;;;10.37;86.56
46379;BME280;32084;42.254;22.744;2023-04-19T05:08:18;94722.84;;;10.44;85.64
46379;BME280;32084;42.254;22.744;2023-04-19T05:10:44;94741.50;;;10.60;85.71
46379;BME280;32084;42.254;22.744;2023-04-19T05:13:10;94739.34;;;10.55;86.87
46379;BME280;32084;42.254;22.744;2023-04-19T05:15:37;94737.31;;;10.66;86.11
46379;BME280;32084;42.254;22.744;2023-04-19T05:18:04;94744.97;;;10.77;85.30
46379;BME280;32084;42.254;22.744;2023-04-19T05:20:30;94743.66;;;10.73;85.65
46379;BME280;32084;42.254;22.744;2023-04-19T05:22:56;94741.00;;;10.65;85.38
46379;BME280;32084;42.254;22.744;2023-04-19T05:25:23;94742.34;;;10.61;85.70
46379;BME280;32084;42.254;22.744;2023-04-19T05:27:49;94746.16;;;10.74;85.07
46379;BME280;32084;42.254;22.744;2023-04-19T05:30:15;94744.31;;;10.75;85.12
46379;BME280;32084;42.254;22.744;2023-04-19T05:32:41;94751.78;;;10.88;85.46
46379;BME280;32084;42.254;22.744;2023-04-19T05:35:07;94743.66;;;11.12;84.52
46379;BME280;32084;42.254;22.744;2023-04-19T05:37:33;94746.75;;;11.32;84.32
46379;BME280;32084;42.254;22.744;2023-04-19T05:40:01;94737.13;;;11.46;84.36
46379;BME280;32084;42.254;22.744;2023-04-19T05:42:30;94741.03;;;11.67;82.68
46379;BME280;32084;42.254;22.744;2023-04-19T05:44:56;94737.56;;;11.81;81.68
46379;BME280;32084;42.254;22.744;2023-04-19T05:47:22;94742.34;;;11.94;80.71
46379;BME280;32084;42.254;22.744;2023-04-19T05:49:48;94742.44;;;12.01;80.21
46379;BME280;32084;42.254;22.744;2023-04-19T05:52:14;94738.97;;;12.53;78.70
46379;BME280;32084;42.254;22.744;2023-04-19T05:54:40;94745.75;;;12.79;77.33
46379;BME280;32084;42.254;22.744;2023-04-19T05:57:07;94740.56;;;13.07;75.66
46379;BME280;32084;42.254;22.744;2023-04-19T05:59:33;94737.41;;;13.33;74.27
46379;BME280;32084;42.254;22.744;2023-04-19T06:01:59;94743.13;;;13.81;73.28
46379;BME280;32084;42.254;22.744;2023-04-19T06:04:26;94739.03;;;14.85;68.62
46379;BME280;32084;42.254;22.744;2023-04-19T06:06:52;94735.91;;;15.23;67.85
46379;BME280;32084;42.254;22.744;2023-04-19T06:09:18;94744.91;;;15.43;68.51
46379;BME280;32084;42.254;22.744;2023-04-19T06:11:44;94743.88;;;15.93;65.48
46379;BME280;32084;42.254;22.744;2023-04-19T06:14:10;94743.09;;;16.32;63.10
46379;BME280;32084;42.254;22.744;2023-04-19T06:16:38;94741.03;;;16.41;63.98
46379;BME280;32084;42.254;22.744;2023-04-19T06:19:05;94736.25;;;16.70;61.20
46379;BME280;32084;42.254;22.744;2023-04-19T06:21:32;94743.50;;;16.63;62.54
46379;BME280;32084;42.254;22.744;2023-04-19T06:23:59;94744.13;;;16.71;61.95
46379;BME280;32084;42.254;22.744;2023-04-19T06:26:25;94740.56;;;17.11;62.20
46379;BME280;32084;42.254;22.744;2023-04-19T06:28:51;94745.00;;;17.57;59.82
46379;BME280;32084;42.254;22.744;2023-04-19T06:31:17;94748.72;;;17.63;57.19
46379;BME280;32084;42.254;22.744;2023-04-19T06:33:43;94748.50;;;17.64;57.82
46379;BME280;32084;42.254;22.744;2023-04-19T06:36:09;94744.06;;;17.76;57.92
46379;BME280;32084;42.254;22.744;2023-04-19T06:38:35;94748.06;;;18.12;54.74
46379;BME280;32084;42.254;22.744;2023-04-19T06:41:03;94746.13;;;18.20;56.95
46379;BME280;32084;42.254;22.744;2023-04-19T06:43:29;94747.53;;;18.29;54.30
46379;BME280;32084;42.254;22.744;2023-04-19T06:45:58;94743.06;;;18.66;51.52
46379;BME280;32084;42.254;22.744;2023-04-19T06:48:25;94745.66;;;18.86;52.60
46379;BME280;32084;42.254;22.744;2023-04-19T06:50:52;94746.34;;;19.00;50.86
46379;BME280;32084;42.254;22.744;2023-04-19T06:53:18;94750.66;;;18.83;51.90
46379;BME280;32084;42.254;22.744;2023-04-19T06:55:45;94754.66;;;18.80;53.03
46379;BME280;32084;42.254;22.744;2023-04-19T06:58:11;94757.78;;;18.77;50.84
46379;BME280;32084;42.254;22.744;2023-04-19T07:00:37;94750.16;;;18.92;53.88
46379;BME280;32084;42.254;22.744;2023-04-19T07:03:03;94750.03;;;19.06;52.43
46379;BME280;32084;42.254;22.744;2023-04-19T07:05:29;94748.25;;;19.37;51.32
46379;BME280;32084;42.254;22.744;2023-04-19T07:07:56;94748.78;;;19.27;51.52
46379;BME280;32084;42.254;22.744;2023-04-19T07:10:22;94756.31;;;18.81;47.13
46379;BME280;32084;42.254;22.744;2023-04-19T07:12:49;94754.34;;;18.63;49.71
46379;BME280;32084;42.254;22.744;2023-04-19T07:15:15;94753.34;;;19.08;49.51
46379;BME280;32084;42.254;22.744;2023-04-19T07:17:41;94742.69;;;19.31;50.45
46379;BME280;32084;42.254;22.744;2023-04-19T07:20:07;94743.44;;;19.57;48.87
46379;BME280;32084;42.254;22.744;2023-04-19T07:22:34;94751.69;;;19.25;50.22
46379;BME280;32084;42.254;22.744;2023-04-19T07:25:00;94752.22;;;18.97;48.84
46379;BME280;32084;42.254;22.744;2023-04-19T07:27:26;94744.66;;;18.74;49.79
46379;BME280;32084;42.254;22.744;2023-04-19T07:29:52;94755.78;;;18.66;49.88
46379;BME280;32084;42.254;22.744;2023-04-19T07:32:18;94752.03;;;18.10;52.28
46379;BME280;32084;42.254;22.744;2023-04-19T07:34:44;94748.78;;;17.43;54.11
46379;BME280;32084;42.254;22.744;2023-04-19T07:37:10;94760.28;;;17.76;51.80
46379;BME280;32084;42.254;22.744;2023-04-19T07:39:40;94754.97;;;18.40;50.27
46379;BME280;32084;42.254;22.744;2023-04-19T07:42:06;94741.34;;;19.22;50.50
46379;BME280;32084;42.254;22.744;2023-04-19T07:44:32;94750.81;;;19.31;47.70
46379;BME280;32084;42.254;22.744;2023-04-19T07:46:58;94754.28;;;19.94;48.22
46379;BME280;32084;42.254;22.744;2023-04-19T07:49:24;94751.41;;;20.19;45.78
46379;BME280;32084;42.254;22.744;2023-04-19T07:51:50;94744.56;;;20.47;47.69
46379;BME280;32084;42.254;22.744;2023-04-19T07:54:16;94747.47;;;20.34;45.55
46379;BME280;32084;42.254;22.744;2023-04-19T07:56:45;94744.78;;;20.57;47.22
46379;BME280;32084;42.254;22.744;2023-04-19T07:59:11;94744.41;;;20.42;46.48
46379;BME280;32084;42.254;22.744;2023-04-19T08:01:36;94735.91;;;20.38;47.52
46379;BME280;32084;42.254;22.744;2023-04-19T08:04:03;94746.97;;;20.37;46.71
46379;BME280;32084;42.254;22.744;2023-04-19T08:06:29;94739.72;;;20.49;46.45
46379;BME280;32084;42.254;22.744;2023-04-19T08:08:55;94742.97;;;21.17;45.03
46379;BME280;32084;42.254;22.744;2023-04-19T08:11:21;94747.91;;;21.67;42.45
46379;BME280;32084;42.254;22.744;2023-04-19T08:13:50;94750.53;;;21.50;42.62
46379;BME280;32084;42.254;22.744;2023-04-19T08:16:16;94735.16;;;20.61;45.56
46379;BME280;32084;42.254;22.744;2023-04-19T08:18:42;94740.38;;;20.86;45.20
46379;BME280;32084;42.254;22.744;2023-04-19T08:21:08;94743.81;;;21.29;42.43
46379;BME280;32084;42.254;22.744;2023-04-19T08:23:34;94745.34;;;21.49;43.11
46379;BME280;32084;42.254;22.744;2023-04-19T08:26:01;94748.28;;;21.59;43.19
46379;BME280;32084;42.254;22.744;2023-04-19T08:28:27;94738.72;;;21.97;40.87
46379;BME280;32084;42.254;22.744;2023-04-19T08:30:53;94735.19;;;21.44;40.91
46379;BME280;32084;42.254;22.744;2023-04-19T08:33:19;94725.47;;;21.36;42.78
46379;BME280;32084;42.254;22.744;2023-04-19T08:35:46;94727.63;;;21.46;42.76
46379;BME280;32084;42.254;22.744;2023-04-19T08:38:12;94728.31;;;21.53;41.82
46379;BME280;32084;42.254;22.744;2023-04-19T08:40:40;94732.31;;;21.39;40.61
46379;BME280;32084;42.254;22.744;2023-04-19T08:43:10;94691.19;;;20.53;42.79
46379;BME280;32084;42.254;22.744;2023-04-19T08:45:36;94705.13;;;19.35;44.92
46379;BME280;32084;42.254;22.744;2023-04-19T08:48:03;94708.28;;;19.14;46.37
46379;BME280;32084;42.254;22.744;2023-04-19T08:50:29;94692.69;;;19.09;48.22
46379;BME280;32084;42.254;22.744;2023-04-19T08:52:57;94705.47;;;19.76;46.83
46379;BME280;32084;42.254;22.744;2023-04-19T08:55:23;94702.13;;;20.34;44.91
46379;BME280;32084;42.254;22.744;2023-04-19T08:57:49;94706.09;;;20.62;43.26
46379;BME280;32084;42.254;22.744;2023-04-19T09:00:15;94709.44;;;20.88;42.91
46379;BME280;32084;42.254;22.744;2023-04-19T09:02:45;94709.31;;;21.06;41.75
46379;BME280;32084;42.254;22.744;2023-04-19T09:05:13;94710.25;;;21.12;41.77
46379;BME280;32084;42.254;22.744;2023-04-19T09:07:39;94707.22;;;21.60;41.72
46379;BME280;32084;42.254;22.744;2023-04-19T09:10:06;94711.03;;;22.17;40.19
46379;BME280;32084;42.254;22.744;2023-04-19T09:12:33;94716.13;;;22.25;39.40
46379;BME280;32084;42.254;22.744;2023-04-19T09:15:00;94716.06;;;22.37;39.03
46379;BME280;32084;42.254;22.744;2023-04-19T09:17:28;94708.56;;;22.44;40.23
46379;BME280;32084;42.254;22.744;2023-04-19T09:19:54;94714.59;;;22.46;39.89
46379;BME280;32084;42.254;22.744;2023-04-19T09:22:20;94705.69;;;22.22;38.20
46379;BME280;32084;42.254;22.744;2023-04-19T09:24:46;94703.41;;;21.73;41.57
46379;BME280;32084;42.254;22.744;2023-04-19T09:27:18;94698.78;;;21.21;42.14
46379;BME280;32084;42.254;22.744;2023-04-19T09:29:53;94685.75;;;20.53;43.89
46379;BME280;32084;42.254;22.744;2023-04-19T09:32:20;94687.59;;;20.17;45.46
46379;BME280;32084;42.254;22.744;2023-04-19T09:34:53;94684.06;;;19.67;44.04
46379;BME280;32084;42.254;22.744;2023-04-19T09:37:19;94686.56;;;19.99;45.37
46379;BME280;32084;42.254;22.744;2023-04-19T09:39:46;94689.22;;;20.18;42.27
46379;BME280;32084;42.254;22.744;2023-04-19T09:42:12;94689.09;;;20.78;43.02
46379;BME280;32084;42.254;22.744;2023-04-19T09:44:38;94699.75;;;20.80;43.27
46379;BME280;32084;42.254;22.744;2023-04-19T09:47:20;94698.69;;;20.93;43.01
46379;BME280;32084;42.254;22.744;2023-04-19T09:49:47;94712.50;;;21.03;42.50
46379;BME280;32084;42.254;22.744;2023-04-19T09:52:13;94701.06;;;20.77;42.87
46379;BME280;32084;42.254;22.744;2023-04-19T09:54:39;94697.38;;;20.95;42.15
46379;BME280;32084;42.254;22.744;2023-04-19T09:57:06;94687.34;;;20.84;41.93
46379;BME280;32084;42.254;22.744;2023-04-19T09:59:33;94692.91;;;20.77;42.68
46379;BME280;32084;42.254;22.744;2023-04-19T10:01:59;94690.16;;;20.65;43.88
46379;BME280;32084;42.254;22.744;2023-04-19T10:04:25;94688.81;;;20.44;42.76
46379;BME280;32084;42.254;22.744;2023-04-19T10:06:53;94691.88;;;20.36;42.88
46379;BME280;32084;42.254;22.744;2023-04-19T10:09:19;94687.31;;;20.18;45.45
46379;BME280;32084;42.254;22.744;2023-04-19T10:11:49;94688.81;;;19.54;48.74
46379;BME280;32084;42.254;22.744;2023-04-19T10:17:45;94682.63;;;18.22;54.55
46379;BME280;32084;42.254;22.744;2023-04-19T10:20:16;94694.50;;;17.83;54.64
46379;BME280;32084;42.254;22.744;2023-04-19T10:22:43;94690.88;;;17.64;56.99
46379;BME280;32084;42.254;22.744;2023-04-19T10:25:13;94703.03;;;17.41;56.46
46379;BME280;32084;42.254;22.744;2023-04-19T10:27:43;94694.47;;;16.99;58.88
46379;BME280;32084;42.254;22.744;2023-04-19T10:30:23;94696.38;;;16.85;57.50
46379;BME280;32084;42.254;22.744;2023-04-19T10:32:55;94699.91;;;16.79;60.92
46379;BME280;32084;42.254;22.744;2023-04-19T10:35:23;94698.03;;;16.86;59.02
46379;BME280;32084;42.254;22.744;2023-04-19T10:43:16;94705.94;;;16.54;63.12
46379;BME280;32084;42.254;22.744;2023-04-19T10:45:43;94704.31;;;16.33;62.81
46379;BME280;32084;42.254;22.744;2023-04-19T10:56:11;94708.19;;;15.84;66.62
46379;BME280;32084;42.254;22.744;2023-04-19T11:01:38;94701.13;;;15.76;69.09
46379;BME280;32084;42.254;22.744;2023-04-19T11:04:05;94695.94;;;15.81;68.42
46379;BME280;32084;42.254;22.744;2023-04-19T11:06:32;94701.56;;;16.00;66.57
46379;BME280;32084;42.254;22.744;2023-04-19T11:08:58;94694.34;;;16.34;67.43
46379;BME280;32084;42.254;22.744;2023-04-19T11:11:25;94689.34;;;16.44;66.12
46379;BME280;32084;42.254;22.744;2023-04-19T11:13:52;94677.94;;;16.42;65.16
46379;BME280;32084;42.254;22.744;2023-04-19T11:16:20;94684.16;;;16.49;66.67
46379;BME280;32084;42.254;22.744;2023-04-19T11:18:46;94682.44;;;16.75;64.54
46379;BME280;32084;42.254;22.744;2023-04-19T11:21:12;94681.00;;;16.92;62.13
46379;BME280;32084;42.254;22.744;2023-04-19T11:23:39;94677.56;;;17.24;62.52
46379;BME280;32084;42.254;22.744;2023-04-19T11:26:08;94678.50;;;17.49;60.59
46379;BME280;32084;42.254;22.744;2023-04-19T11:28:34;94681.88;;;17.38;61.98
46379;BME280;32084;42.254;22.744;2023-04-19T11:31:00;94688.34;;;17.30;62.16
46379;BME280;32084;42.254;22.744;2023-04-19T11:33:35;94683.28;;;16.89;59.48
46379;BME280;32084;42.254;22.744;2023-04-19T11:36:02;94685.00;;;16.43;64.25
46379;BME280;32084;42.254;22.744;2023-04-19T11:38:28;94678.13;;;16.00;62.34
46379;BME280;32084;42.254;22.744;2023-04-19T11:41:01;94681.00;;;15.86;65.52
46379;BME280;32084;42.254;22.744;2023-04-19T11:43:34;94678.94;;;16.01;70.46
46379;BME280;32084;42.254;22.744;2023-04-19T11:46:18;94677.94;;;15.95;68.46
46379;BME280;32084;42.254;22.744;2023-04-19T11:48:51;94694.28;;;15.80;68.57
46379;BME280;32084;42.254;22.744;2023-04-19T11:51:17;94700.44;;;15.68;70.44
46379;BME280;32084;42.254;22.744;2023-04-19T11:53:44;94709.34;;;15.68;69.97
46379;BME280;32084;42.254;22.744;2023-04-19T11:56:10;94706.16;;;15.38;71.05
46379;BME280;32084;42.254;22.744;2023-04-19T11:58:40;94707.16;;;15.23;72.91
46379;BME280;32084;42.254;22.744;2023-04-19T12:03:55;94683.97;;;15.36;67.54
46379;BME280;32084;42.254;22.744;2023-04-19T12:06:24;94683.06;;;15.09;68.25
46379;BME280;32084;42.254;22.744;2023-04-19T12:08:51;94683.94;;;15.22;71.34
46379;BME280;32084;42.254;22.744;2023-04-19T12:11:17;94683.34;;;15.27;69.31
46379;BME280;32084;42.254;22.744;2023-04-19T12:13:44;94677.41;;;15.58;68.68
46379;BME280;32084;42.254;22.744;2023-04-19T12:16:10;94679.38;;;15.85;67.16
46379;BME280;32084;42.254;22.744;2023-04-19T12:18:49;94671.91;;;16.40;66.83
46379;BME280;32084;42.254;22.744;2023-04-19T12:21:22;94682.25;;;16.83;66.49
46379;BME280;32084;42.254;22.744;2023-04-19T12:23:52;94678.50;;;16.91;62.02
46379;BME280;32084;42.254;22.744;2023-04-19T12:26:18;94675.41;;;16.67;57.50
46379;BME280;32084;42.254;22.744;2023-04-19T12:28:44;94672.50;;;16.55;58.66
46379;BME280;32084;42.254;22.744;2023-04-19T12:31:10;94661.31;;;16.38;60.93
46379;BME280;32084;42.254;22.744;2023-04-19T12:33:36;94661.56;;;16.04;60.48
46379;BME280;32084;42.254;22.744;2023-04-19T12:36:02;94658.78;;;15.70;62.19
46379;BME280;32084;42.254;22.744;2023-04-19T12:38:28;94657.56;;;15.73;60.73
46379;BME280;32084;42.254;22.744;2023-04-19T12:40:54;94646.38;;;15.76;61.91
46379;BME280;32084;42.254;22.744;2023-04-19T12:43:20;94650.53;;;16.12;58.71
46379;BME280;32084;42.254;22.744;2023-04-19T12:45:46;94653.66;;;16.02;60.40
46379;BME280;32084;42.254;22.744;2023-04-19T12:48:12;94647.03;;;16.25;58.85
46379;BME280;32084;42.254;22.744;2023-04-19T12:50:38;94653.22;;;16.52;59.11
46379;BME280;32084;42.254;22.744;2023-04-19T12:53:04;94651.72;;;16.76;59.12
46379;BME280;32084;42.254;22.744;2023-04-19T12:55:31;94643.78;;;17.01;57.68
46379;BME280;32084;42.254;22.744;2023-04-19T12:57:57;94652.06;;;17.06;57.95
46379;BME280;32084;42.254;22.744;2023-04-19T13:00:23;94641.56;;;16.85;57.07
46379;BME280;32084;42.254;22.744;2023-04-19T13:02:49;94641.31;;;16.79;58.69
46379;BME280;32084;42.254;22.744;2023-04-19T13:05:15;94639.25;;;16.82;58.79
46379;BME280;32084;42.254;22.744;2023-04-19T13:07:41;94640.97;;;16.49;59.26
46379;BME280;32084;42.254;22.744;2023-04-19T13:10:07;94638.88;;;16.45;59.78